Time;durP1;ratioP1;P1;durP2;ratioP2;P2;SDS_P1;SDS_P2;PMS_P1;PMS_P2;Temp;Humidity;BMP_temperature;BMP_pressure;BME280_temperature;BME280_humidity;BME280_pressure;Samples;Min_cycle;Max_cycle;Signal;HPM_P1;HPM_P2
2021/06/26 00:00:29;;;;;;;30.70;16.58;;;;;;;11.89;100.00;96189.13;1030455;28;20030;-70
2021/06/26 00:01:00;;;;;;;32.17;15.73;;;;;;;11.91;100.00;96192.31;1031064;28;20042;-69
2021/06/26 00:01:31;;;;;;;30.48;15.23;;;;;;;11.92;100.00;96191.25;1023014;28;20110;-69
2021/06/26 00:02:01;;;;;;;37.95;15.75;;;;;;;11.90;100.00;96190.72;1027691;28;20086;-69
2021/06/26 00:02:34;;;;;;;25.48;14.07;;;;;;;11.85;100.00;96182.81;1026137;28;20614;-69
2021/06/26 00:03:05;;;;;;;19.52;12.65;;;;;;;11.84;100.00;96184.66;1023741;28;20489;-70
2021/06/26 00:03:35;;;;;;;20.02;11.23;;;;;;;11.82;100.00;96194.63;1032611;28;20269;-69
2021/06/26 00:04:06;;;;;;;18.35;12.07;;;;;;;11.80;100.00;96186.19;1034630;28;20028;-69
2021/06/26 00:04:38;;;;;;;24.67;13.68;;;;;;;11.77;100.00;96182.25;1030823;28;20578;-69
2021/06/26 00:05:09;;;;;;;19.73;12.20;;;;;;;11.80;100.00;96191.44;1023234;28;20627;-70
2021/06/26 00:05:40;;;;;;;20.85;12.95;;;;;;;11.82;100.00;96186.72;1023082;29;20843;-69
2021/06/26 00:06:13;;;;;;;21.55;12.20;;;;;;;11.83;100.00;96185.66;1022745;28;20351;-70
2021/06/26 00:06:44;;;;;;;20.02;12.90;;;;;;;11.84;100.00;96187.31;1024261;29;20574;-71
2021/06/26 00:07:14;;;;;;;19.55;12.82;;;;;;;11.84;100.00;96187.31;1024769;28;20335;-70
2021/06/26 00:07:45;;;;;;;23.40;13.32;;;;;;;11.81;100.00;96187.78;1028922;28;20055;-69
2021/06/26 00:08:15;;;;;;;24.15;13.57;;;;;;;11.85;100.00;96190.72;1031747;28;20254;-69
2021/06/26 00:08:46;;;;;;;25.00;14.57;;;;;;;11.86;100.00;96184.41;1026655;28;20531;-69
2021/06/26 00:09:16;;;;;;;22.27;14.15;;;;;;;11.85;100.00;96185.47;1029497;28;20436;-70
2021/06/26 00:09:47;;;;;;;25.02;14.75;;;;;;;11.85;100.00;96191.50;1027110;28;20462;-71
2021/06/26 00:10:18;;;;;;;26.10;14.15;;;;;;;11.80;100.00;96184.38;1026971;28;20041;-69
2021/06/26 00:10:48;;;;;;;24.48;14.60;;;;;;;11.84;100.00;96191.72;1023923;28;20032;-70
2021/06/26 00:11:19;;;;;;;21.35;14.07;;;;;;;11.84;100.00;96187.31;1022519;29;20031;-69
2021/06/26 00:11:50;;;;;;;23.27;13.68;;;;;;;11.84;100.00;96189.09;1022290;29;20027;-69
2021/06/26 00:12:23;;;;;;;25.63;14.52;;;;;;;11.83;100.00;96190.94;1021521;28;20271;-71
2021/06/26 00:12:56;;;;;;;33.60;14.55;;;;;;;11.83;100.00;96188.28;1026748;28;20495;-70
2021/06/26 00:13:27;;;;;;;24.55;13.93;;;;;;;11.83;100.00;96185.66;1023061;28;21051;-70
2021/06/26 00:13:58;;;;;;;26.25;14.52;;;;;;;11.82;100.00;96184.09;1026776;28;20258;-69
2021/06/26 00:14:29;;;;;;;22.58;13.75;;;;;;;11.82;100.00;96189.34;1023648;28;20058;-70
2021/06/26 00:14:59;;;;;;;21.38;13.52;;;;;;;11.81;100.00;96187.78;1027267;28;20274;-69
2021/06/26 00:15:29;;;;;;;21.67;13.32;;;;;;;11.82;100.00;96181.47;1039051;28;20037;-69
2021/06/26 00:16:00;;;;;;;25.92;14.27;;;;;;;11.81;100.00;96177.25;1038491;28;20036;-69
2021/06/26 00:16:30;;;;;;;22.63;13.52;;;;;;;11.74;100.00;96177.50;1033670;28;20028;-69
2021/06/26 00:17:01;;;;;;;20.00;13.05;;;;;;;11.82;100.00;96184.09;1030911;28;20506;-69
2021/06/26 00:17:31;;;;;;;22.15;13.95;;;;;;;11.77;100.00;96176.22;1030922;28;20531;-67
2021/06/26 00:18:02;;;;;;;26.63;14.27;;;;;;;11.81;100.00;96182.53;1026885;28;20533;-71
2021/06/26 00:18:32;;;;;;;19.45;13.32;;;;;;;11.82;100.00;96183.31;1022318;28;20030;-69
2021/06/26 00:19:03;;;;;;;22.77;14.50;;;;;;;11.78;100.00;96178.56;1027135;28;20042;-69
2021/06/26 00:19:33;;;;;;;27.23;15.05;;;;;;;11.80;100.00;96180.94;1026829;28;20030;-69
2021/06/26 00:20:04;;;;;;;24.40;14.02;;;;;;;11.82;100.00;96180.69;1024958;28;20031;-69
2021/06/26 00:20:35;;;;;;;26.77;14.45;;;;;;;11.81;100.00;96182.53;1022906;28;20130;-69
2021/06/26 00:21:05;;;;;;;23.38;13.27;;;;;;;11.80;100.00;96181.75;1024562;28;20278;-70
2021/06/26 00:21:36;;;;;;;23.13;15.02;;;;;;;11.79;100.00;96187.25;1028151;28;20022;-71
2021/06/26 00:22:09;;;;;;;22.73;13.90;;;;;;;11.78;100.00;96178.56;1034562;28;20469;-71
2021/06/26 00:22:40;;;;;;;27.05;14.90;;;;;;;11.79;100.00;96184.63;1026623;28;20266;-69
2021/06/26 00:23:11;;;;;;;25.70;15.05;;;;;;;11.71;100.00;96166.72;1030333;28;20511;-69
2021/06/26 00:23:41;;;;;;;24.77;13.65;;;;;;;11.78;100.00;96180.41;1026225;28;20521;-71
2021/06/26 00:24:12;;;;;;;30.13;15.40;;;;;;;11.75;100.00;96180.94;1031121;28;20030;-70
2021/06/26 00:24:42;;;;;;;28.48;14.63;;;;;;;11.76;100.00;96183.28;1035481;28;20030;-65
2021/06/26 00:25:13;;;;;;;30.17;14.63;;;;;;;11.76;100.00;96185.13;1029708;28;20027;-71
2021/06/26 00:25:43;;;;;;;26.33;14.05;;;;;;;11.76;100.00;96180.66;1030283;28;20026;-68
2021/06/26 00:26:14;;;;;;;23.13;14.35;;;;;;;11.71;100.00;96177.25;1030621;28;20065;-70
2021/06/26 00:26:44;;;;;;;24.85;13.85;;;;;;;11.74;100.00;96181.97;1029648;28;20077;-69
2021/06/26 00:27:17;;;;;;;25.10;13.57;;;;;;;11.74;100.00;96187.25;1030814;28;20045;-70
2021/06/26 00:27:48;;;;;;;30.30;14.70;;;;;;;11.74;100.00;96185.41;1033509;28;20044;-71
2021/06/26 00:28:19;;;;;;;24.10;14.43;;;;;;;11.75;100.00;96183.56;1034307;28;20304;-70
2021/06/26 00:28:49;;;;;;;25.92;14.70;;;;;;;11.77;100.00;96189.34;1023054;28;20804;-69
2021/06/26 00:29:20;;;;;;;24.25;13.88;;;;;;;11.75;100.00;96186.97;1024473;28;20042;-70
2021/06/26 00:29:50;;;;;;;27.35;14.88;;;;;;;11.65;100.00;96173.78;1026954;28;20031;-69
2021/06/26 00:30:21;;;;;;;24.45;15.02;;;;;;;11.70;100.00;96176.44;1024716;28;20033;-70
2021/06/26 00:30:51;;;;;;;21.48;14.07;;;;;;;11.69;100.00;96188.00;1026810;28;20023;-70
2021/06/26 00:31:22;;;;;;;21.70;13.23;;;;;;;11.74;100.00;96187.25;1027773;28;20582;-70
2021/06/26 00:31:52;;;;;;;20.25;14.18;;;;;;;11.74;100.00;96192.50;1025948;28;20568;-69
2021/06/26 00:32:23;;;;;;;19.77;14.93;;;;;;;11.71;100.00;96183.28;1031558;28;20096;-69
2021/06/26 00:32:54;;;;;;;23.23;13.90;;;;;;;11.72;100.00;96187.47;1030144;28;20038;-71
2021/06/26 00:33:24;;;;;;;21.35;13.75;;;;;;;11.74;100.00;96193.28;1030550;28;20026;-69
2021/06/26 00:33:54;;;;;;;18.27;12.77;;;;;;;11.67;100.00;96184.84;1034428;28;20038;-69
2021/06/26 00:34:25;;;;;;;23.10;13.57;;;;;;;11.71;100.00;96179.88;1029344;28;20038;-70
2021/06/26 00:34:55;;;;;;;20.58;13.35;;;;;;;11.71;100.00;96199.06;1034508;28;20021;-69
2021/06/26 00:35:26;;;;;;;20.90;13.95;;;;;;;11.68;100.00;96188.28;1034643;28;20419;-70
2021/06/26 00:35:56;;;;;;;17.55;12.73;;;;;;;11.71;100.00;96190.38;1032260;28;20029;-68
2021/06/26 00:36:27;;;;;;;20.38;13.15;;;;;;;11.66;100.00;96179.84;1037446;28;20033;-69
2021/06/26 00:36:57;;;;;;;17.95;12.52;;;;;;;11.70;100.00;96188.78;1035016;28;20029;-70
2021/06/26 00:37:27;;;;;;;25.50;13.05;;;;;;;11.66;100.00;96188.50;1026380;28;20019;-70
2021/06/26 00:37:58;;;;;;;22.13;13.38;;;;;;;11.66;100.00;96185.09;1026756;28;20027;-69
2021/06/26 00:38:28;;;;;;;30.05;15.00;;;;;;;11.68;100.00;96185.63;1023915;28;20518;-69
2021/06/26 00:38:59;;;;;;;26.08;14.85;;;;;;;11.67;100.00;96184.03;1030681;28;20022;-70
2021/06/26 00:39:29;;;;;;;29.20;16.20;;;;;;;11.65;100.00;96186.16;1027747;28;20030;-70
2021/06/26 00:40:00;;;;;;;21.05;13.30;;;;;;;11.62;100.00;96189.28;1028417;28;20053;-70
2021/06/26 00:40:30;;;;;;;19.00;12.10;;;;;;;11.61;100.00;96187.72;1030158;28;20018;-69
2021/06/26 00:41:01;;;;;;;17.58;11.20;;;;;;;11.59;100.00;96184.53;1031008;28;20026;-69
2021/06/26 00:41:31;;;;;;;19.30;12.60;;;;;;;11.57;100.00;96177.72;1026459;28;20058;-71
2021/06/26 00:42:03;;;;;;;24.55;13.57;;;;;;;11.50;100.00;96176.34;1034595;28;20014;-68
2021/06/26 00:42:37;;;;;;;15.30;11.20;;;;;;;11.52;100.00;96188.19;1026147;28;20042;-68
2021/06/26 00:43:07;;;;;;;16.17;11.70;;;;;;;11.51;100.00;96183.22;1030829;28;20715;-71
2021/06/26 00:43:38;;;;;;;17.38;11.80;;;;;;;11.47;100.00;96174.28;1030940;28;20265;-69
2021/06/26 00:44:09;;;;;;;21.23;12.07;;;;;;;11.50;100.00;96182.44;1030848;28;20475;-70
2021/06/26 00:44:40;;;;;;;23.05;13.55;;;;;;;11.48;100.00;96187.13;1026850;28;20102;-69
2021/06/26 00:45:12;;;;;;;16.83;11.32;;;;;;;11.48;100.00;96188.97;1027192;28;20119;-69
2021/06/26 00:45:43;;;;;;;21.95;12.43;;;;;;;11.46;100.00;96183.97;1023768;28;20678;-69
2021/06/26 00:46:13;;;;;;;30.55;14.38;;;;;;;11.49;100.00;96191.34;1025051;28;20267;-70
2021/06/26 00:46:44;;;;;;;21.77;13.63;;;;;;;11.50;100.00;96186.88;1021900;29;20143;-71
2021/06/26 00:47:14;;;;;;;28.00;15.82;;;;;;;11.51;100.00;96188.47;1022935;28;20027;-68
2021/06/26 00:47:45;;;;;;;31.63;14.88;;;;;;;11.44;100.00;96167.69;1026276;28;20030;-67
2021/06/26 00:48:16;;;;;;;26.73;15.82;;;;;;;11.53;100.00;96179.25;1021164;28;20070;-70
2021/06/26 00:48:46;;;;;;;42.00;19.77;;;;;;;11.55;100.00;96177.19;1030954;28;20324;-69
2021/06/26 00:49:17;;;;;;;24.58;14.82;;;;;;;11.53;100.00;96181.88;1026965;28;20688;-69
2021/06/26 00:49:47;;;;;;;27.67;15.43;;;;;;;11.55;100.00;96181.66;1022614;28;20031;-72
2021/06/26 00:50:20;;;;;;;28.83;14.82;;;;;;;11.54;100.00;96180.84;1031016;28;20022;-69
2021/06/26 00:50:51;;;;;;;33.13;16.70;;;;;;;11.55;100.00;96171.91;1030754;28;20388;-69
2021/06/26 00:51:21;;;;;;;29.17;15.45;;;;;;;11.54;100.00;96172.97;1028969;28;20268;-70
2021/06/26 00:51:52;;;;;;;26.92;15.18;;;;;;;11.52;100.00;96180.31;1031027;28;20014;-69
2021/06/26 00:52:22;;;;;;;28.63;15.48;;;;;;;11.54;100.00;96172.19;1038614;28;20029;-69
2021/06/26 00:52:53;;;;;;;22.42;14.43;;;;;;;11.50;100.00;96171.91;1035926;28;20022;-70
2021/06/26 00:53:23;;;;;;;23.90;15.05;;;;;;;11.55;100.00;96179.00;1039142;28;20021;-70
2021/06/26 00:53:54;;;;;;;30.25;16.17;;;;;;;11.56;100.00;96176.13;1036774;28;20406;-69
2021/06/26 00:54:25;;;;;;;30.75;16.63;;;;;;;11.54;100.00;96159.06;1035220;28;20026;-69
2021/06/26 00:54:55;;;;;;;32.55;16.85;;;;;;;11.50;100.00;96161.41;1030107;28;20427;-69
2021/06/26 00:55:26;;;;;;;29.30;16.63;;;;;;;11.59;100.00;96171.41;1031008;28;20034;-70
2021/06/26 00:55:56;;;;;;;32.45;15.93;;;;;;;11.54;100.00;96161.69;1030929;28;20102;-70
2021/06/26 00:56:27;;;;;;;33.42;16.25;;;;;;;11.48;100.00;96158.22;1025911;28;20667;-69
2021/06/26 00:56:57;;;;;;;24.83;14.23;;;;;;;11.53;100.00;96160.88;1027023;28;20082;-69
2021/06/26 00:57:28;;;;;;;30.48;15.45;;;;;;;11.49;100.00;96154.56;1031227;28;20481;-71
2021/06/26 00:57:59;;;;;;;36.17;18.13;;;;;;;11.49;100.00;96154.56;1026135;28;20802;-70
2021/06/26 00:58:29;;;;;;;28.58;16.20;;;;;;;11.59;100.00;96158.25;1023033;29;20029;-69
2021/06/26 00:59:02;;;;;;;49.50;21.00;;;;;;;11.53;100.00;96147.72;1026800;28;20277;-70
2021/06/26 00:59:33;;;;;;;33.75;16.95;;;;;;;11.55;100.00;96160.63;1023435;28;20046;-69
2021/06/26 01:00:04;;;;;;;32.50;16.45;;;;;;;11.53;100.00;96158.22;1027847;28;20918;-69
2021/06/26 01:00:35;;;;;;;38.22;17.20;;;;;;;11.52;100.00;96163.75;1030633;28;20033;-69
2021/06/26 01:01:05;;;;;;;28.40;15.48;;;;;;;11.50;100.00;96164.03;1023897;28;20323;-69
2021/06/26 01:01:36;;;;;;;23.33;14.40;;;;;;;11.45;100.00;96147.44;1022214;28;20029;-71
2021/06/26 01:02:08;;;;;;;29.33;16.67;;;;;;;11.48;100.00;96158.22;1025735;28;20019;-69
2021/06/26 01:02:38;;;;;;;26.58;14.52;;;;;;;11.48;100.00;96157.44;1022689;29;20102;-70
2021/06/26 01:03:09;;;;;;;21.02;13.60;;;;;;;11.43;100.00;96158.19;1022217;28;20266;-69
2021/06/26 01:03:40;;;;;;;24.20;13.32;;;;;;;11.46;100.00;96159.53;1022761;28;20027;-70
2021/06/26 01:04:10;;;;;;;27.65;15.65;;;;;;;11.45;100.00;96160.59;1026841;28;20342;-69
2021/06/26 01:04:41;;;;;;;23.42;13.23;;;;;;;11.45;100.00;96153.50;1026399;28;20141;-69
2021/06/26 01:05:11;;;;;;;26.05;14.88;;;;;;;11.44;100.00;96151.91;1022950;28;20398;-69
2021/06/26 01:05:45;;;;;;;35.00;16.50;;;;;;;11.42;100.00;96154.00;1027775;28;20041;-69
2021/06/26 01:06:19;;;;;;;26.52;15.25;;;;;;;11.47;100.00;96155.88;1034793;28;20261;-69
2021/06/26 01:06:49;;;;;;;27.20;15.70;;;;;;;11.44;100.00;96151.91;1035301;28;20261;-69
2021/06/26 01:07:19;;;;;;;25.08;15.27;;;;;;;11.40;100.00;96140.34;1034950;28;20084;-69
2021/06/26 01:07:51;;;;;;;24.15;14.05;;;;;;;11.42;100.00;96147.97;1027416;28;20065;-72
2021/06/26 01:08:25;;;;;;;26.50;15.38;;;;;;;11.45;100.00;96153.50;1022614;28;20027;-69
2021/06/26 01:08:55;;;;;;;31.35;16.08;;;;;;;11.44;100.00;96151.13;1022271;29;20287;-69
2021/06/26 01:09:26;;;;;;;24.88;14.93;;;;;;;11.46;100.00;96149.00;1024420;28;20016;-70
2021/06/26 01:09:56;;;;;;;28.13;16.13;;;;;;;11.41;100.00;96141.91;1027956;28;20503;-70
2021/06/26 01:10:28;;;;;;;26.70;15.70;;;;;;;11.45;100.00;96140.34;1034850;28;20108;-68
2021/06/26 01:10:58;;;;;;;28.33;15.65;;;;;;;11.46;100.00;96147.19;1035204;28;20113;-69
2021/06/26 01:11:29;;;;;;;22.40;15.00;;;;;;;11.41;100.00;96125.38;1034871;28;20256;-70
2021/06/26 01:11:59;;;;;;;26.02;15.07;;;;;;;11.47;100.00;96140.91;1026179;28;20015;-69
2021/06/26 01:12:30;;;;;;;26.27;15.48;;;;;;;11.46;100.00;96141.91;1026894;28;20400;-69
2021/06/26 01:13:00;;;;;;;24.92;14.32;;;;;;;11.46;100.00;96143.75;1030200;28;20660;-69
2021/06/26 01:13:32;;;;;;;24.73;15.23;;;;;;;11.46;100.00;96143.75;1026260;28;20011;-69
2021/06/26 01:14:02;;;;;;;24.10;14.43;;;;;;;11.44;100.00;96144.03;1031109;28;20022;-68
2021/06/26 01:14:33;;;;;;;27.35;14.30;;;;;;;11.45;100.00;96142.97;1034698;28;20303;-69
2021/06/26 01:15:05;;;;;;;21.75;14.52;;;;;;;11.41;100.00;96136.66;1026606;28;20113;-69
2021/06/26 01:15:36;;;;;;;24.95;13.98;;;;;;;11.44;100.00;96144.03;1030549;28;20030;-69
2021/06/26 01:16:06;;;;;;;21.23;13.73;;;;;;;11.38;100.00;96129.28;1018855;29;20271;-69
2021/06/26 01:16:37;;;;;;;21.35;13.98;;;;;;;11.45;100.00;96142.19;1026581;28;20030;-69
2021/06/26 01:17:10;;;;;;;22.25;14.00;;;;;;;11.44;100.00;96140.63;1026037;28;20058;-72
2021/06/26 01:17:40;;;;;;;21.67;13.57;;;;;;;11.43;100.00;96144.28;1027586;28;20026;-69
2021/06/26 01:18:11;;;;;;;24.05;13.57;;;;;;;11.43;100.00;96142.44;1031176;28;20742;-70
2021/06/26 01:18:41;;;;;;;21.65;13.70;;;;;;;11.42;100.00;96140.88;1038641;28;20312;-69
2021/06/26 01:19:12;;;;;;;21.83;12.90;;;;;;;11.42;100.00;96145.34;1036837;28;20022;-69
2021/06/26 01:19:42;;;;;;;20.42;13.32;;;;;;;11.38;100.00;96142.44;1038233;28;20044;-69
2021/06/26 01:20:13;;;;;;;22.67;13.40;;;;;;;11.40;100.00;96140.34;1034772;28;20115;-67
2021/06/26 01:20:44;;;;;;;22.90;13.88;;;;;;;11.40;100.00;96142.97;1034901;28;20583;-70
2021/06/26 01:21:17;;;;;;;23.20;14.30;;;;;;;11.40;100.00;96135.09;1034511;28;20309;-69
2021/06/26 01:21:52;;;;;;;23.00;13.82;;;;;;;11.35;100.00;96131.66;1030483;28;20026;-69
2021/06/26 01:22:27;;;;;;;23.67;13.93;;;;;;;11.34;100.00;96133.50;1026776;28;20270;-69
2021/06/26 01:22:59;;;;;;;19.02;12.65;;;;;;;11.36;100.00;96139.25;1020315;28;20267;-69
2021/06/26 01:23:29;;;;;;;24.88;13.05;;;;;;;11.33;100.00;96137.13;1030616;28;20327;-69
2021/06/26 01:24:00;;;;;;;34.58;15.07;;;;;;;11.38;100.00;96137.19;1032445;28;20632;-70
2021/06/26 01:24:30;;;;;;;35.95;14.98;;;;;;;11.33;100.00;96129.25;1034954;28;20033;-70
2021/06/26 01:25:01;;;;;;;38.65;16.58;;;;;;;11.39;100.00;96138.75;1026666;28;20066;-69
2021/06/26 01:25:31;;;;;;;24.83;14.18;;;;;;;11.35;100.00;96136.91;1026317;28;20030;-69
2021/06/26 01:26:02;;;;;;;23.52;12.25;;;;;;;11.36;100.00;96144.50;1019117;29;20031;-71
2021/06/26 01:26:36;;;;;;;23.98;11.82;;;;;;;11.35;100.00;96142.16;1018495;29;20424;-70
2021/06/26 01:27:07;;;;;;;17.58;11.40;;;;;;;11.31;100.00;96141.88;1025155;28;20102;-69
2021/06/26 01:27:40;;;;;;;24.30;12.65;;;;;;;11.29;100.00;96143.97;1024096;28;20317;-69
2021/06/26 01:28:12;;;;;;;22.80;11.95;;;;;;;11.28;100.00;96142.38;1026687;28;20109;-71
2021/06/26 01:28:43;;;;;;;18.25;11.32;;;;;;;11.25;100.00;96145.53;1027830;28;20280;-69
2021/06/26 01:29:13;;;;;;;16.67;10.85;;;;;;;11.25;100.00;96145.53;1027127;28;20289;-70
2021/06/26 01:29:48;;;;;;;16.52;11.75;;;;;;;11.23;100.00;96144.97;1027194;28;20101;-71
2021/06/26 01:30:26;;;;;;;23.27;12.90;;;;;;;11.17;100.00;96138.94;1026936;28;20035;-69
2021/06/26 01:30:56;;;;;;;24.85;13.07;;;;;;;11.18;100.00;96140.50;1033956;28;20785;-70
2021/06/26 01:31:27;;;;;;;22.00;12.77;;;;;;;11.16;100.00;96141.81;1036216;28;20332;-69
2021/06/26 01:31:57;;;;;;;16.73;12.10;;;;;;;11.16;100.00;96145.22;1034518;28;20026;-68
2021/06/26 01:32:28;;;;;;;21.20;12.90;;;;;;;11.18;100.00;96145.75;1022254;29;20050;-69
2021/06/26 01:32:58;;;;;;;19.40;12.18;;;;;;;11.16;100.00;96145.22;1023116;28;20090;-71
2021/06/26 01:33:29;;;;;;;23.00;12.88;;;;;;;11.15;100.00;96145.47;1022546;29;20019;-70
2021/06/26 01:33:59;;;;;;;19.02;13.00;;;;;;;11.12;100.00;96144.16;1019572;28;20032;-69
2021/06/26 01:34:29;;;;;;;22.08;13.45;;;;;;;11.14;100.00;96146.53;1029903;28;20022;-69
2021/06/26 01:35:04;;;;;;;22.52;13.48;;;;;;;11.15;100.00;96148.09;1023153;28;20106;-70
2021/06/26 01:35:34;;;;;;;17.48;12.73;;;;;;;11.07;100.00;96142.31;1022801;29;20818;-69
2021/06/26 01:36:05;;;;;;;19.80;12.25;;;;;;;11.08;100.00;96141.25;1026900;28;20270;-70
2021/06/26 01:36:35;;;;;;;26.30;15.20;;;;;;;11.16;100.00;96154.94;1026209;28;20022;-69
2021/06/26 01:37:05;;;;;;;23.88;14.07;;;;;;;11.13;100.00;96153.59;1027040;28;20026;-69
2021/06/26 01:37:39;;;;;;;28.27;15.23;;;;;;;11.15;100.00;96156.00;1030555;28;20575;-69
2021/06/26 01:38:10;;;;;;;22.90;14.18;;;;;;;11.16;100.00;96154.94;1026913;28;20023;-69
2021/06/26 01:38:40;;;;;;;26.45;15.27;;;;;;;11.18;100.00;96158.09;1027480;28;20628;-70
2021/06/26 01:39:11;;;;;;;24.58;15.30;;;;;;;11.14;100.00;96146.53;1035350;28;20030;-70
2021/06/26 01:39:41;;;;;;;24.38;15.15;;;;;;;11.17;100.00;96156.53;1030836;28;20022;-69
2021/06/26 01:40:20;;;;;;;22.85;14.23;;;;;;;11.16;100.00;96154.94;1030392;28;20026;-71
2021/06/26 01:40:50;;;;;;;24.20;13.48;;;;;;;11.19;100.00;96155.22;1030998;28;20110;-69
2021/06/26 01:41:22;;;;;;;21.08;13.40;;;;;;;11.20;100.00;96161.25;1032774;28;20269;-70
2021/06/26 01:41:54;;;;;;;22.63;14.05;;;;;;;11.19;100.00;96155.22;1031821;28;20113;-70
2021/06/26 01:42:25;;;;;;;21.00;14.02;;;;;;;11.18;100.00;96156.25;1032158;28;20269;-70
2021/06/26 01:42:58;;;;;;;21.10;13.23;;;;;;;11.13;100.00;96145.72;1034242;28;20653;-69
2021/06/26 01:43:29;;;;;;;29.38;14.32;;;;;;;11.20;100.00;96156.81;1023455;28;20034;-70
2021/06/26 01:44:00;;;;;;;25.17;13.95;;;;;;;11.20;100.00;96156.00;1031515;28;20261;-69
2021/06/26 01:44:31;;;;;;;20.70;12.60;;;;;;;11.14;100.00;96146.53;1030982;28;20030;-69
2021/06/26 01:45:02;;;;;;;23.02;14.07;;;;;;;11.17;100.00;96151.28;1027920;28;20677;-69
2021/06/26 01:45:32;;;;;;;19.08;12.70;;;;;;;11.18;100.00;96155.47;1033376;28;20022;-69
2021/06/26 01:46:03;;;;;;;21.83;13.32;;;;;;;11.18;100.00;96152.84;1032180;28;20030;-70
2021/06/26 01:46:38;;;;;;;19.27;12.50;;;;;;;11.12;100.00;96146.00;1034001;28;20022;-69
2021/06/26 01:47:09;;;;;;;21.67;13.27;;;;;;;11.12;100.00;96146.00;1034664;28;20742;-69
2021/06/26 01:47:48;;;;;;;21.63;14.13;;;;;;;11.21;100.00;96147.09;1030941;28;20305;-70
2021/06/26 01:48:20;;;;;;;21.48;14.10;;;;;;;11.23;100.00;96147.59;1020287;28;20724;-71
2021/06/26 01:48:51;;;;;;;20.55;13.02;;;;;;;11.24;100.00;96152.63;1030325;28;20037;-69
2021/06/26 01:49:21;;;;;;;20.45;13.15;;;;;;;11.25;100.00;96148.16;1029958;28;20273;-70
2021/06/26 01:49:52;;;;;;;26.63;15.48;;;;;;;11.25;100.00;96148.16;1033000;28;20089;-69
2021/06/26 01:50:23;;;;;;;24.80;14.85;;;;;;;11.26;100.00;96147.09;1034727;28;20030;-69
2021/06/26 01:50:53;;;;;;;26.92;14.55;;;;;;;11.23;100.00;96145.78;1030483;28;20022;-69
2021/06/26 01:51:24;;;;;;;22.23;14.52;;;;;;;11.22;100.00;96140.78;1031015;28;20266;-70
2021/06/26 01:51:54;;;;;;;22.17;13.00;;;;;;;11.16;100.00;96131.28;1038529;28;20100;-69
2021/06/26 01:52:25;;;;;;;25.63;14.23;;;;;;;11.24;100.00;96136.88;1029722;28;20053;-69
2021/06/26 01:52:55;;;;;;;23.20;14.48;;;;;;;11.14;100.00;96120.28;1023978;28;20030;-69
2021/06/26 01:53:26;;;;;;;24.92;14.27;;;;;;;11.24;100.00;96136.06;1020705;28;20267;-69
2021/06/26 01:53:56;;;;;;;23.40;14.77;;;;;;;11.23;100.00;96130.03;1020869;29;20040;-69
2021/06/26 01:54:27;;;;;;;24.80;14.65;;;;;;;11.23;100.00;96129.22;1018784;28;20541;-69
2021/06/26 01:54:57;;;;;;;30.70;15.68;;;;;;;11.19;100.00;96125.53;1022178;28;20038;-70
2021/06/26 01:55:28;;;;;;;23.23;14.55;;;;;;;11.19;100.00;96125.53;1022733;28;20023;-69
2021/06/26 01:55:58;;;;;;;25.45;15.00;;;;;;;11.21;100.00;96131.34;1030893;28;20034;-69
2021/06/26 01:56:29;;;;;;;24.33;14.75;;;;;;;11.20;100.00;96132.34;1026217;28;20031;-69
2021/06/26 01:56:59;;;;;;;23.60;13.77;;;;;;;11.20;100.00;96135.81;1026153;28;20035;-72
2021/06/26 01:57:30;;;;;;;35.15;17.55;;;;;;;11.20;100.00;96140.25;1030754;28;20030;-70
2021/06/26 01:58:00;;;;;;;25.83;15.43;;;;;;;11.20;100.00;96129.72;1026608;28;20035;-69
2021/06/26 01:58:31;;;;;;;26.33;15.68;;;;;;;11.19;100.00;96125.53;1034026;28;20049;-68
2021/06/26 01:59:01;;;;;;;30.77;14.85;;;;;;;11.12;100.00;96125.75;1034926;28;20030;-69
2021/06/26 01:59:31;;;;;;;18.75;12.40;;;;;;;11.18;100.00;96129.22;1030511;28;20026;-69
2021/06/26 02:00:04;;;;;;;22.33;12.45;;;;;;;11.16;100.00;96131.28;1030908;28;20412;-69
2021/06/26 02:00:34;;;;;;;19.25;12.30;;;;;;;11.15;100.00;96127.88;1027249;28;20089;-69
2021/06/26 02:01:04;;;;;;;16.20;10.90;;;;;;;11.15;100.00;96127.09;1026806;28;20880;-69
2021/06/26 02:01:35;;;;;;;17.40;11.48;;;;;;;11.15;100.00;96135.75;1035797;28;20033;-69
2021/06/26 02:02:06;;;;;;;18.55;13.07;;;;;;;11.15;100.00;96127.09;1034167;28;20037;-69
2021/06/26 02:02:37;;;;;;;22.00;12.68;;;;;;;11.15;100.00;96130.50;1027461;28;20023;-69
2021/06/26 02:03:07;;;;;;;21.42;12.68;;;;;;;11.08;100.00;96122.06;1027175;28;20293;-71
2021/06/26 02:03:37;;;;;;;22.52;13.68;;;;;;;11.15;100.00;96140.22;1030235;28;20038;-70
2021/06/26 02:04:08;;;;;;;20.40;12.35;;;;;;;11.11;100.00;96134.69;1030946;28;20061;-70
2021/06/26 02:04:39;;;;;;;22.23;12.80;;;;;;;11.13;100.00;96135.22;1033471;28;20018;-68
2021/06/26 02:05:10;;;;;;;18.15;12.75;;;;;;;11.12;100.00;96138.13;1030158;28;20529;-70
2021/06/26 02:05:41;;;;;;;42.00;13.93;;;;;;;11.05;100.00;96117.34;1026609;28;20052;-69
2021/06/26 02:06:11;;;;;;;33.83;14.85;;;;;;;11.12;100.00;96135.50;1026340;28;20274;-69
2021/06/26 02:06:42;;;;;;;26.25;12.60;;;;;;;11.12;100.00;96132.84;1026729;28;20475;-69
2021/06/26 02:07:12;;;;;;;31.23;12.73;;;;;;;11.13;100.00;96137.06;1023563;28;20043;-68
2021/06/26 02:07:43;;;;;;;23.35;12.30;;;;;;;11.09;100.00;96128.91;1026601;28;20504;-69
2021/06/26 02:08:13;;;;;;;25.33;13.85;;;;;;;11.05;100.00;96122.59;1030727;28;20023;-70
2021/06/26 02:08:44;;;;;;;28.27;13.68;;;;;;;11.09;100.00;96136.78;1023750;28;20303;-69
2021/06/26 02:09:14;;;;;;;37.38;16.08;;;;;;;11.02;100.00;96118.63;1026839;28;20037;-69
2021/06/26 02:09:45;;;;;;;31.27;14.98;;;;;;;11.06;100.00;96135.44;1022805;28;20039;-69
2021/06/26 02:10:15;;;;;;;19.73;12.40;;;;;;;11.03;100.00;96135.16;1022875;28;20769;-68
2021/06/26 02:10:46;;;;;;;18.75;11.75;;;;;;;10.99;100.00;96124.38;1023257;28;20031;-69
2021/06/26 02:11:16;;;;;;;17.15;11.35;;;;;;;11.01;100.00;96127.56;1023382;28;20042;-69
2021/06/26 02:11:46;;;;;;;18.35;11.73;;;;;;;11.03;100.00;96130.72;1026689;28;20548;-69
2021/06/26 02:12:17;;;;;;;17.58;11.48;;;;;;;11.02;100.00;96130.97;1022905;28;20630;-70
2021/06/26 02:12:48;;;;;;;18.42;11.85;;;;;;;11.02;100.00;96134.38;1031647;28;20045;-69
2021/06/26 02:13:18;;;;;;;21.73;12.48;;;;;;;10.97;100.00;96120.47;1034750;28;20026;-70
2021/06/26 02:13:49;;;;;;;20.25;12.70;;;;;;;11.00;100.00;96131.25;1039600;28;20034;-70
2021/06/26 02:14:19;;;;;;;26.85;13.30;;;;;;;10.99;100.00;96129.63;1035325;28;20053;-67
2021/06/26 02:14:52;;;;;;;27.20;13.88;;;;;;;11.02;100.00;96130.97;1029886;28;20043;-70
2021/06/26 02:15:22;;;;;;;16.67;11.40;;;;;;;11.02;100.00;96133.59;1031357;28;20022;-69
2021/06/26 02:15:53;;;;;;;24.63;13.35;;;;;;;11.00;100.00;96131.25;1036432;28;20272;-69
2021/06/26 02:16:29;;;;;;;18.70;11.75;;;;;;;11.01;100.00;96132.81;1033600;28;20400;-66
2021/06/26 02:17:00;;;;;;;19.90;12.32;;;;;;;10.98;100.00;96133.31;1032752;28;20018;-69
2021/06/26 02:17:30;;;;;;;19.00;11.60;;;;;;;11.00;100.00;96133.88;1031592;28;20759;-68
2021/06/26 02:18:03;;;;;;;19.23;12.65;;;;;;;11.00;100.00;96130.41;1035676;28;20022;-69
2021/06/26 02:18:34;;;;;;;18.23;12.50;;;;;;;11.00;100.00;96135.69;1031177;28;20035;-69
2021/06/26 02:19:04;;;;;;;24.15;13.20;;;;;;;10.85;100.00;96108.31;1031797;28;20273;-69
2021/06/26 02:19:37;;;;;;;19.73;13.40;;;;;;;11.01;100.00;96134.66;1031759;28;21760;-69
2021/06/26 02:20:08;;;;;;;18.90;12.43;;;;;;;10.99;100.00;96129.63;1029554;28;20262;-71
2021/06/26 02:20:39;;;;;;;19.73;12.52;;;;;;;10.97;100.00;96126.50;1026123;28;20015;-69
2021/06/26 02:21:10;;;;;;;17.52;12.25;;;;;;;11.00;100.00;96131.25;1026325;28;20266;-67